sensor_id;sensor_type;location;lat;lon;timestamp;P1;durP1;ratioP1;P2;durP2;ratioP2
11582;SDS011;34299;50.820;4.548;2024-02-16T00:02:22;3.30;;;1.70;;
11582;SDS011;34299;50.820;4.548;2024-02-16T00:04:49;2.20;;;1.80;;
11582;SDS011;34299;50.820;4.548;2024-02-16T00:07:16;2.93;;;1.90;;
11582;SDS011;34299;50.820;4.548;2024-02-16T00:09:43;3.30;;;1.60;;
11582;SDS011;34299;50.820;4.548;2024-02-16T00:12:11;1.73;;;1.63;;
11582;SDS011;34299;50.820;4.548;2024-02-16T00:14:39;2.87;;;2.17;;
11582;SDS011;34299;50.820;4.548;2024-02-16T00:17:06;2.40;;;1.80;;
11582;SDS011;34299;50.820;4.548;2024-02-16T00:19:35;3.20;;;2.20;;
11582;SDS011;34299;50.820;4.548;2024-02-16T00:22:02;2.13;;;1.83;;
11582;SDS011;34299;50.820;4.548;2024-02-16T00:24:29;3.07;;;2.00;;
11582;SDS011;34299;50.820;4.548;2024-02-16T00:26:56;2.20;;;1.83;;
11582;SDS011;34299;50.820;4.548;2024-02-16T00:29:25;2.80;;;2.00;;
11582;SDS011;34299;50.820;4.548;2024-02-16T00:31:52;1.90;;;1.73;;
11582;SDS011;34299;50.820;4.548;2024-02-16T00:34:19;2.90;;;1.83;;
11582;SDS011;34299;50.820;4.548;2024-02-16T00:36:45;3.67;;;1.80;;
11582;SDS011;34299;50.820;4.548;2024-02-16T00:39:12;5.40;;;2.13;;
11582;SDS011;34299;50.820;4.548;2024-02-16T00:41:39;5.40;;;2.13;;
11582;SDS011;34299;50.820;4.548;2024-02-16T00:44:06;1.50;;;1.40;;
11582;SDS011;34299;50.820;4.548;2024-02-16T00:46:36;3.83;;;2.37;;
11582;SDS011;34299;50.820;4.548;2024-02-16T00:49:03;2.67;;;1.73;;
11582;SDS011;34299;50.820;4.548;2024-02-16T00:51:30;3.80;;;1.97;;
11582;SDS011;34299;50.820;4.548;2024-02-16T00:53:57;2.63;;;2.03;;
11582;SDS011;34299;50.820;4.548;2024-02-16T00:56:24;4.00;;;2.17;;
11582;SDS011;34299;50.820;4.548;2024-02-16T00:58:51;2.27;;;1.60;;
11582;SDS011;34299;50.820;4.548;2024-02-16T01:01:17;2.77;;;1.83;;
11582;SDS011;34299;50.820;4.548;2024-02-16T01:03:47;2.77;;;2.20;;
11582;SDS011;34299;50.820;4.548;2024-02-16T01:06:14;3.63;;;1.90;;
11582;SDS011;34299;50.820;4.548;2024-02-16T01:08:41;4.47;;;2.07;;
11582;SDS011;34299;50.820;4.548;2024-02-16T01:11:08;2.50;;;2.13;;
11582;SDS011;34299;50.820;4.548;2024-02-16T01:13:35;4.23;;;1.70;;
11582;SDS011;34299;50.820;4.548;2024-02-16T01:16:02;2.70;;;1.90;;
11582;SDS011;34299;50.820;4.548;2024-02-16T01:18:29;2.47;;;1.80;;
11582;SDS011;34299;50.820;4.548;2024-02-16T01:20:59;2.13;;;1.70;;
11582;SDS011;34299;50.820;4.548;2024-02-16T01:23:26;3.40;;;1.90;;
11582;SDS011;34299;50.820;4.548;2024-02-16T01:25:53;3.37;;;2.10;;
11582;SDS011;34299;50.820;4.548;2024-02-16T01:28:19;3.33;;;2.10;;
11582;SDS011;34299;50.820;4.548;2024-02-16T01:30:47;2.10;;;1.90;;
11582;SDS011;34299;50.820;4.548;2024-02-16T01:33:13;3.30;;;1.90;;
11582;SDS011;34299;50.820;4.548;2024-02-16T01:35:40;3.60;;;2.00;;
11582;SDS011;34299;50.820;4.548;2024-02-16T01:38:09;3.23;;;2.27;;
11582;SDS011;34299;50.820;4.548;2024-02-16T01:40:36;3.80;;;2.20;;
11582;SDS011;34299;50.820;4.548;2024-02-16T01:43:03;4.23;;;2.63;;
11582;SDS011;34299;50.820;4.548;2024-02-16T01:45:30;4.00;;;2.30;;
11582;SDS011;34299;50.820;4.548;2024-02-16T01:47:57;2.20;;;2.00;;
11582;SDS011;34299;50.820;4.548;2024-02-16T01:50:24;3.27;;;1.83;;
11582;SDS011;34299;50.820;4.548;2024-02-16T01:52:54;2.87;;;2.23;;
11582;SDS011;34299;50.820;4.548;2024-02-16T01:55:23;3.30;;;2.10;;
11582;SDS011;34299;50.820;4.548;2024-02-16T01:57:51;2.27;;;2.00;;
11582;SDS011;34299;50.820;4.548;2024-02-16T02:00:18;2.60;;;1.80;;
11582;SDS011;34299;50.820;4.548;2024-02-16T02:02:45;2.13;;;1.67;;
11582;SDS011;34299;50.820;4.548;2024-02-16T02:05:13;3.10;;;2.00;;
11582;SDS011;34299;50.820;4.548;2024-02-16T02:07:40;6.20;;;2.07;;
11582;SDS011;34299;50.820;4.548;2024-02-16T02:10:08;3.23;;;1.90;;
11582;SDS011;34299;50.820;4.548;2024-02-16T02:12:38;2.90;;;2.10;;
11582;SDS011;34299;50.820;4.548;2024-02-16T02:15:07;3.60;;;2.00;;
11582;SDS011;34299;50.820;4.548;2024-02-16T02:17:35;3.13;;;1.90;;
11582;SDS011;34299;50.820;4.548;2024-02-16T02:20:01;5.80;;;2.40;;
11582;SDS011;34299;50.820;4.548;2024-02-16T02:22:33;3.23;;;2.20;;
11582;SDS011;34299;50.820;4.548;2024-02-16T02:25:00;3.30;;;2.13;;
11582;SDS011;34299;50.820;4.548;2024-02-16T02:27:27;3.60;;;1.80;;
11582;SDS011;34299;50.820;4.548;2024-02-16T02:29:54;3.57;;;2.20;;
11582;SDS011;34299;50.820;4.548;2024-02-16T02:32:21;4.40;;;1.80;;
11582;SDS011;34299;50.820;4.548;2024-02-16T02:34:48;3.30;;;2.07;;
11582;SDS011;34299;50.820;4.548;2024-02-16T02:37:15;1.80;;;1.63;;
11582;SDS011;34299;50.820;4.548;2024-02-16T02:39:43;2.93;;;2.00;;
11582;SDS011;34299;50.820;4.548;2024-02-16T02:42:10;2.80;;;1.73;;
11582;SDS011;34299;50.820;4.548;2024-02-16T02:44:37;2.47;;;1.90;;
11582;SDS011;34299;50.820;4.548;2024-02-16T02:47:05;2.10;;;1.83;;
11582;SDS011;34299;50.820;4.548;2024-02-16T02:49:32;4.67;;;2.00;;
11582;SDS011;34299;50.820;4.548;2024-02-16T02:52:00;2.97;;;2.20;;
11582;SDS011;34299;50.820;4.548;2024-02-16T02:54:27;2.90;;;1.83;;
11582;SDS011;34299;50.820;4.548;2024-02-16T02:56:55;2.43;;;1.83;;
11582;SDS011;34299;50.820;4.548;2024-02-16T02:59:22;4.30;;;2.13;;
11582;SDS011;34299;50.820;4.548;2024-02-16T03:01:49;3.20;;;2.23;;
11582;SDS011;34299;50.820;4.548;2024-02-16T03:04:16;2.20;;;1.73;;
11582;SDS011;34299;50.820;4.548;2024-02-16T03:06:43;2.13;;;1.80;;
11582;SDS011;34299;50.820;4.548;2024-02-16T03:09:10;2.13;;;1.93;;
11582;SDS011;34299;50.820;4.548;2024-02-16T03:11:37;3.43;;;1.97;;
11582;SDS011;34299;50.820;4.548;2024-02-16T03:14:06;3.43;;;2.20;;
11582;SDS011;34299;50.820;4.548;2024-02-16T03:16:33;2.53;;;1.83;;
11582;SDS011;34299;50.820;4.548;2024-02-16T03:19:00;3.47;;;1.77;;
11582;SDS011;34299;50.820;4.548;2024-02-16T03:21:27;4.20;;;1.70;;
11582;SDS011;34299;50.820;4.548;2024-02-16T03:23:54;3.47;;;1.83;;
11582;SDS011;34299;50.820;4.548;2024-02-16T03:26:21;3.43;;;2.47;;
11582;SDS011;34299;50.820;4.548;2024-02-16T03:28:48;1.97;;;1.80;;
11582;SDS011;34299;50.820;4.548;2024-02-16T03:31:17;5.43;;;1.90;;
11582;SDS011;34299;50.820;4.548;2024-02-16T03:33:45;2.67;;;1.90;;
11582;SDS011;34299;50.820;4.548;2024-02-16T03:36:12;3.63;;;2.07;;
11582;SDS011;34299;50.820;4.548;2024-02-16T03:38:40;2.80;;;2.00;;
11582;SDS011;34299;50.820;4.548;2024-02-16T03:41:12;2.63;;;2.23;;
11582;SDS011;34299;50.820;4.548;2024-02-16T03:43:41;3.27;;;2.10;;
11582;SDS011;34299;50.820;4.548;2024-02-16T03:46:08;2.40;;;1.80;;
11582;SDS011;34299;50.820;4.548;2024-02-16T03:48:37;4.03;;;1.93;;
11582;SDS011;34299;50.820;4.548;2024-02-16T03:51:04;2.83;;;2.10;;
11582;SDS011;34299;50.820;4.548;2024-02-16T03:53:31;2.67;;;2.10;;
11582;SDS011;34299;50.820;4.548;2024-02-16T03:55:58;3.73;;;2.40;;
11582;SDS011;34299;50.820;4.548;2024-02-16T03:58:25;5.03;;;2.00;;
11582;SDS011;34299;50.820;4.548;2024-02-16T04:00:52;3.17;;;2.20;;
11582;SDS011;34299;50.820;4.548;2024-02-16T04:03:19;2.30;;;1.90;;
11582;SDS011;34299;50.820;4.548;2024-02-16T04:05:47;2.87;;;2.20;;
11582;SDS011;34299;50.820;4.548;2024-02-16T04:08:14;3.03;;;1.90;;
11582;SDS011;34299;50.820;4.548;2024-02-16T04:10:41;2.13;;;1.93;;
11582;SDS011;34299;50.820;4.548;2024-02-16T04:13:08;2.10;;;1.90;;
11582;SDS011;34299;50.820;4.548;2024-02-16T04:15:35;3.03;;;2.00;;
11582;SDS011;34299;50.820;4.548;2024-02-16T04:18:02;2.70;;;2.03;;
11582;SDS011;34299;50.820;4.548;2024-02-16T04:20:29;2.73;;;2.10;;
11582;SDS011;34299;50.820;4.548;2024-02-16T04:22:57;2.73;;;2.00;;
11582;SDS011;34299;50.820;4.548;2024-02-16T04:25:24;2.47;;;2.13;;
11582;SDS011;34299;50.820;4.548;2024-02-16T04:27:51;3.00;;;2.07;;
11582;SDS011;34299;50.820;4.548;2024-02-16T04:30:18;4.47;;;2.47;;
11582;SDS011;34299;50.820;4.548;2024-02-16T04:32:45;4.43;;;2.40;;
11582;SDS011;34299;50.820;4.548;2024-02-16T04:35:13;3.47;;;1.90;;
11582;SDS011;34299;50.820;4.548;2024-02-16T04:37:40;3.10;;;1.90;;
11582;SDS011;34299;50.820;4.548;2024-02-16T04:40:09;4.17;;;2.40;;
11582;SDS011;34299;50.820;4.548;2024-02-16T04:42:37;3.87;;;2.23;;
11582;SDS011;34299;50.820;4.548;2024-02-16T04:45:06;2.87;;;1.80;;
11582;SDS011;34299;50.820;4.548;2024-02-16T04:47:33;3.20;;;2.23;;
11582;SDS011;34299;50.820;4.548;2024-02-16T04:50:00;3.13;;;2.00;;
11582;SDS011;34299;50.820;4.548;2024-02-16T04:52:28;4.23;;;2.13;;
11582;SDS011;34299;50.820;4.548;2024-02-16T04:54:55;3.63;;;2.20;;
11582;SDS011;34299;50.820;4.548;2024-02-16T04:57:23;3.27;;;2.13;;
11582;SDS011;34299;50.820;4.548;2024-02-16T04:59:50;3.33;;;2.30;;
11582;SDS011;34299;50.820;4.548;2024-02-16T05:02:17;3.90;;;2.07;;
11582;SDS011;34299;50.820;4.548;2024-02-16T05:04:44;3.27;;;2.10;;
11582;SDS011;34299;50.820;4.548;2024-02-16T05:07:11;6.33;;;2.80;;
11582;SDS011;34299;50.820;4.548;2024-02-16T05:09:37;3.33;;;2.00;;
11582;SDS011;34299;50.820;4.548;2024-02-16T05:12:05;3.87;;;2.30;;
11582;SDS011;34299;50.820;4.548;2024-02-16T05:14:35;3.20;;;2.23;;
11582;SDS011;34299;50.820;4.548;2024-02-16T05:17:02;2.73;;;1.97;;
11582;SDS011;34299;50.820;4.548;2024-02-16T05:19:32;4.77;;;1.80;;
11582;SDS011;34299;50.820;4.548;2024-02-16T05:22:00;3.90;;;2.63;;
11582;SDS011;34299;50.820;4.548;2024-02-16T05:24:27;4.03;;;2.33;;
11582;SDS011;34299;50.820;4.548;2024-02-16T05:26:54;5.00;;;2.40;;
11582;SDS011;34299;50.820;4.548;2024-02-16T05:29:21;3.80;;;2.33;;
11582;SDS011;34299;50.820;4.548;2024-02-16T05:31:52;3.73;;;2.10;;
11582;SDS011;34299;50.820;4.548;2024-02-16T05:34:19;2.33;;;2.13;;
11582;SDS011;34299;50.820;4.548;2024-02-16T05:36:46;2.83;;;2.17;;
11582;SDS011;34299;50.820;4.548;2024-02-16T05:39:13;3.43;;;2.23;;
11582;SDS011;34299;50.820;4.548;2024-02-16T05:41:51;4.00;;;2.10;;
11582;SDS011;34299;50.820;4.548;2024-02-16T05:44:19;3.70;;;2.43;;
11582;SDS011;34299;50.820;4.548;2024-02-16T05:46:46;3.10;;;2.07;;
11582;SDS011;34299;50.820;4.548;2024-02-16T05:49:15;4.20;;;2.07;;
11582;SDS011;34299;50.820;4.548;2024-02-16T05:51:42;2.93;;;2.37;;
11582;SDS011;34299;50.820;4.548;2024-02-16T05:54:25;3.20;;;2.10;;
11582;SDS011;34299;50.820;4.548;2024-02-16T05:56:52;6.40;;;2.40;;
11582;SDS011;34299;50.820;4.548;2024-02-16T05:59:19;5.27;;;2.50;;
11582;SDS011;34299;50.820;4.548;2024-02-16T06:01:47;3.60;;;2.43;;
11582;SDS011;34299;50.820;4.548;2024-02-16T06:04:16;5.37;;;2.23;;
11582;SDS011;34299;50.820;4.548;2024-02-16T06:06:43;5.17;;;2.50;;
11582;SDS011;34299;50.820;4.548;2024-02-16T06:09:10;3.40;;;2.17;;
11582;SDS011;34299;50.820;4.548;2024-02-16T06:11:37;5.13;;;3.13;;
11582;SDS011;34299;50.820;4.548;2024-02-16T06:14:04;2.37;;;2.10;;
11582;SDS011;34299;50.820;4.548;2024-02-16T06:16:31;4.17;;;2.17;;
11582;SDS011;34299;50.820;4.548;2024-02-16T06:18:58;5.30;;;2.13;;
11582;SDS011;34299;50.820;4.548;2024-02-16T06:21:26;3.40;;;2.20;;
11582;SDS011;34299;50.820;4.548;2024-02-16T06:23:53;3.37;;;2.40;;
11582;SDS011;34299;50.820;4.548;2024-02-16T06:26:20;3.40;;;2.30;;
11582;SDS011;34299;50.820;4.548;2024-02-16T06:28:47;4.87;;;2.50;;
11582;SDS011;34299;50.820;4.548;2024-02-16T06:31:14;2.73;;;2.40;;
11582;SDS011;34299;50.820;4.548;2024-02-16T06:33:41;3.40;;;2.07;;
11582;SDS011;34299;50.820;4.548;2024-02-16T06:36:08;7.30;;;2.33;;
11582;SDS011;34299;50.820;4.548;2024-02-16T06:38:37;4.00;;;2.80;;
11582;SDS011;34299;50.820;4.548;2024-02-16T06:41:04;4.23;;;2.43;;
11582;SDS011;34299;50.820;4.548;2024-02-16T06:43:30;4.73;;;2.43;;
11582;SDS011;34299;50.820;4.548;2024-02-16T06:45:57;3.90;;;2.57;;
11582;SDS011;34299;50.820;4.548;2024-02-16T06:48:24;7.93;;;2.57;;
11582;SDS011;34299;50.820;4.548;2024-02-16T06:50:51;4.23;;;2.70;;
11582;SDS011;34299;50.820;4.548;2024-02-16T06:53:19;7.50;;;2.90;;
11582;SDS011;34299;50.820;4.548;2024-02-16T06:55:47;2.43;;;2.20;;
11582;SDS011;34299;50.820;4.548;2024-02-16T06:58:15;3.67;;;2.40;;
11582;SDS011;34299;50.820;4.548;2024-02-16T07:00:42;6.93;;;2.47;;
11582;SDS011;34299;50.820;4.548;2024-02-16T07:03:09;4.53;;;2.27;;
11582;SDS011;34299;50.820;4.548;2024-02-16T07:05:36;4.27;;;2.27;;
11582;SDS011;34299;50.820;4.548;2024-02-16T07:08:04;3.30;;;2.57;;
11582;SDS011;34299;50.820;4.548;2024-02-16T07:10:32;5.93;;;2.67;;
11582;SDS011;34299;50.820;4.548;2024-02-16T07:13:00;3.50;;;2.43;;
11582;SDS011;34299;50.820;4.548;2024-02-16T07:15:28;3.50;;;2.27;;
11582;SDS011;34299;50.820;4.548;2024-02-16T07:17:55;4.00;;;2.47;;
11582;SDS011;34299;50.820;4.548;2024-02-16T07:20:23;5.63;;;2.20;;
11582;SDS011;34299;50.820;4.548;2024-02-16T07:22:50;2.77;;;2.47;;
11582;SDS011;34299;50.820;4.548;2024-02-16T07:25:17;5.10;;;2.53;;
11582;SDS011;34299;50.820;4.548;2024-02-16T07:27:44;4.13;;;2.40;;
11582;SDS011;34299;50.820;4.548;2024-02-16T07:30:13;5.57;;;2.70;;
11582;SDS011;34299;50.820;4.548;2024-02-16T07:32:40;6.33;;;2.53;;
11582;SDS011;34299;50.820;4.548;2024-02-16T07:35:09;4.70;;;2.43;;
11582;SDS011;34299;50.820;4.548;2024-02-16T07:37:38;2.97;;;2.10;;
11582;SDS011;34299;50.820;4.548;2024-02-16T07:40:07;4.13;;;2.27;;
11582;SDS011;34299;50.820;4.548;2024-02-16T07:42:37;3.93;;;2.50;;
11582;SDS011;34299;50.820;4.548;2024-02-16T07:45:05;6.27;;;2.47;;
11582;SDS011;34299;50.820;4.548;2024-02-16T07:47:34;9.60;;;2.53;;
11582;SDS011;34299;50.820;4.548;2024-02-16T07:50:01;3.17;;;2.57;;
11582;SDS011;34299;50.820;4.548;2024-02-16T07:52:28;3.90;;;2.90;;
11582;SDS011;34299;50.820;4.548;2024-02-16T07:54:55;3.00;;;2.70;;
11582;SDS011;34299;50.820;4.548;2024-02-16T07:57:22;3.80;;;2.50;;
11582;SDS011;34299;50.820;4.548;2024-02-16T07:59:49;2.90;;;2.20;;
11582;SDS011;34299;50.820;4.548;2024-02-16T08:02:16;3.50;;;2.33;;
11582;SDS011;34299;50.820;4.548;2024-02-16T08:04:47;4.73;;;2.23;;
11582;SDS011;34299;50.820;4.548;2024-02-16T08:07:14;5.63;;;3.20;;
11582;SDS011;34299;50.820;4.548;2024-02-16T08:09:43;4.67;;;2.17;;
11582;SDS011;34299;50.820;4.548;2024-02-16T08:12:10;2.90;;;2.40;;
11582;SDS011;34299;50.820;4.548;2024-02-16T08:14:37;3.63;;;2.53;;
11582;SDS011;34299;50.820;4.548;2024-02-16T08:17:05;6.40;;;2.83;;
11582;SDS011;34299;50.820;4.548;2024-02-16T08:19:32;5.47;;;2.60;;
11582;SDS011;34299;50.820;4.548;2024-02-16T08:22:02;5.00;;;2.90;;
11582;SDS011;34299;50.820;4.548;2024-02-16T08:24:31;3.53;;;2.43;;
11582;SDS011;34299;50.820;4.548;2024-02-16T08:26:58;5.80;;;3.10;;
11582;SDS011;34299;50.820;4.548;2024-02-16T08:29:25;4.40;;;2.90;;
11582;SDS011;34299;50.820;4.548;2024-02-16T08:31:52;4.20;;;2.73;;
11582;SDS011;34299;50.820;4.548;2024-02-16T08:34:20;4.23;;;2.70;;
11582;SDS011;34299;50.820;4.548;2024-02-16T08:36:48;5.33;;;3.20;;
11582;SDS011;34299;50.820;4.548;2024-02-16T08:39:16;4.77;;;2.60;;
11582;SDS011;34299;50.820;4.548;2024-02-16T08:41:45;8.10;;;3.20;;
11582;SDS011;34299;50.820;4.548;2024-02-16T08:44:13;5.37;;;3.10;;
11582;SDS011;34299;50.820;4.548;2024-02-16T08:46:40;4.37;;;3.10;;
11582;SDS011;34299;50.820;4.548;2024-02-16T08:49:07;6.53;;;2.70;;
11582;SDS011;34299;50.820;4.548;2024-02-16T08:51:34;4.57;;;2.70;;
11582;SDS011;34299;50.820;4.548;2024-02-16T08:54:01;5.07;;;3.03;;
11582;SDS011;34299;50.820;4.548;2024-02-16T08:56:31;6.13;;;3.07;;
11582;SDS011;34299;50.820;4.548;2024-02-16T08:59:00;4.97;;;2.93;;
11582;SDS011;34299;50.820;4.548;2024-02-16T09:01:30;5.07;;;2.80;;
11582;SDS011;34299;50.820;4.548;2024-02-16T09:03:57;9.47;;;3.47;;
11582;SDS011;34299;50.820;4.548;2024-02-16T09:06:24;4.70;;;3.37;;
11582;SDS011;34299;50.820;4.548;2024-02-16T09:08:51;5.77;;;3.30;;
11582;SDS011;34299;50.820;4.548;2024-02-16T09:11:18;6.37;;;3.33;;
11582;SDS011;34299;50.820;4.548;2024-02-16T09:13:46;4.00;;;2.90;;
11582;SDS011;34299;50.820;4.548;2024-02-16T09:16:14;4.70;;;2.77;;
11582;SDS011;34299;50.820;4.548;2024-02-16T09:18:41;4.07;;;2.83;;
11582;SDS011;34299;50.820;4.548;2024-02-16T09:21:08;4.60;;;2.90;;
11582;SDS011;34299;50.820;4.548;2024-02-16T09:23:35;5.90;;;2.93;;
11582;SDS011;34299;50.820;4.548;2024-02-16T09:26:03;5.07;;;3.13;;
11582;SDS011;34299;50.820;4.548;2024-02-16T09:28:31;6.73;;;3.73;;
11582;SDS011;34299;50.820;4.548;2024-02-16T09:30:59;4.50;;;3.50;;
11582;SDS011;34299;50.820;4.548;2024-02-16T09:33:26;6.87;;;3.13;;
11582;SDS011;34299;50.820;4.548;2024-02-16T09:35:53;4.70;;;3.13;;
11582;SDS011;34299;50.820;4.548;2024-02-16T09:38:20;7.67;;;3.37;;
11582;SDS011;34299;50.820;4.548;2024-02-16T09:40:47;7.53;;;3.53;;
11582;SDS011;34299;50.820;4.548;2024-02-16T09:43:23;5.57;;;3.40;;
11582;SDS011;34299;50.820;4.548;2024-02-16T09:45:52;5.73;;;3.00;;
11582;SDS011;34299;50.820;4.548;2024-02-16T09:48:24;9.63;;;3.13;;
11582;SDS011;34299;50.820;4.548;2024-02-16T09:50:53;5.23;;;3.27;;
11582;SDS011;34299;50.820;4.548;2024-02-16T09:53:21;9.60;;;4.07;;
11582;SDS011;34299;50.820;4.548;2024-02-16T09:55:51;8.13;;;3.60;;
11582;SDS011;34299;50.820;4.548;2024-02-16T09:58:18;6.40;;;3.40;;
11582;SDS011;34299;50.820;4.548;2024-02-16T10:00:49;5.70;;;3.53;;
11582;SDS011;34299;50.820;4.548;2024-02-16T10:03:25;10.60;;;4.00;;
11582;SDS011;34299;50.820;4.548;2024-02-16T10:06:03;6.97;;;3.80;;
11582;SDS011;34299;50.820;4.548;2024-02-16T10:08:31;5.83;;;3.47;;
11582;SDS011;34299;50.820;4.548;2024-02-16T10:11:02;7.50;;;4.13;;
11582;SDS011;34299;50.820;4.548;2024-02-16T10:13:30;9.33;;;4.97;;
11582;SDS011;34299;50.820;4.548;2024-02-16T10:16:06;8.40;;;4.17;;
11582;SDS011;34299;50.820;4.548;2024-02-16T10:18:36;9.83;;;4.33;;
11582;SDS011;34299;50.820;4.548;2024-02-16T10:21:04;6.67;;;3.60;;
11582;SDS011;34299;50.820;4.548;2024-02-16T10:23:31;7.20;;;4.80;;
11582;SDS011;34299;50.820;4.548;2024-02-16T10:25:58;7.30;;;4.00;;
11582;SDS011;34299;50.820;4.548;2024-02-16T10:28:26;10.07;;;4.77;;
11582;SDS011;34299;50.820;4.548;2024-02-16T10:30:57;8.83;;;4.20;;
11582;SDS011;34299;50.820;4.548;2024-02-16T10:33:26;13.40;;;5.23;;
11582;SDS011;34299;50.820;4.548;2024-02-16T10:35:56;12.40;;;4.23;;
11582;SDS011;34299;50.820;4.548;2024-02-16T10:38:24;10.10;;;3.90;;
11582;SDS011;34299;50.820;4.548;2024-02-16T10:40:52;11.67;;;4.67;;
11582;SDS011;34299;50.820;4.548;2024-02-16T10:43:20;7.47;;;4.23;;
11582;SDS011;34299;50.820;4.548;2024-02-16T10:45:48;8.50;;;4.57;;
11582;SDS011;34299;50.820;4.548;2024-02-16T10:48:18;10.90;;;5.07;;
11582;SDS011;34299;50.820;4.548;2024-02-16T10:50:45;8.20;;;4.60;;
11582;SDS011;34299;50.820;4.548;2024-02-16T10:53:19;8.77;;;4.90;;
11582;SDS011;34299;50.820;4.548;2024-02-16T10:55:50;7.67;;;4.80;;
11582;SDS011;34299;50.820;4.548;2024-02-16T10:58:17;5.80;;;4.63;;
11582;SDS011;34299;50.820;4.548;2024-02-16T11:00:51;11.77;;;4.70;;
11582;SDS011;34299;50.820;4.548;2024-02-16T11:03:21;12.07;;;5.40;;
11582;SDS011;34299;50.820;4.548;2024-02-16T11:05:50;8.57;;;5.07;;
11582;SDS011;34299;50.820;4.548;2024-02-16T11:08:19;7.77;;;4.57;;
11582;SDS011;34299;50.820;4.548;2024-02-16T11:10:53;10.30;;;4.77;;
11582;SDS011;34299;50.820;4.548;2024-02-16T11:13:22;11.83;;;5.90;;
11582;SDS011;34299;50.820;4.548;2024-02-16T11:15:56;8.73;;;5.10;;
11582;SDS011;34299;50.820;4.548;2024-02-16T11:18:24;13.80;;;5.67;;
11582;SDS011;34299;50.820;4.548;2024-02-16T11:20:52;11.60;;;5.90;;
11582;SDS011;34299;50.820;4.548;2024-02-16T11:23:28;10.17;;;5.50;;
11582;SDS011;34299;50.820;4.548;2024-02-16T11:25:59;11.90;;;5.33;;
11582;SDS011;34299;50.820;4.548;2024-02-16T11:28:28;8.10;;;5.53;;
11582;SDS011;34299;50.820;4.548;2024-02-16T11:30:57;8.97;;;5.10;;
11582;SDS011;34299;50.820;4.548;2024-02-16T11:33:25;10.97;;;5.60;;
11582;SDS011;34299;50.820;4.548;2024-02-16T11:35:53;8.40;;;5.30;;
11582;SDS011;34299;50.820;4.548;2024-02-16T11:38:22;10.27;;;5.80;;
11582;SDS011;34299;50.820;4.548;2024-02-16T11:40:55;7.97;;;5.50;;
11582;SDS011;34299;50.820;4.548;2024-02-16T11:43:23;10.37;;;5.97;;
11582;SDS011;34299;50.820;4.548;2024-02-16T11:45:51;7.37;;;5.13;;
11582;SDS011;34299;50.820;4.548;2024-02-16T11:48:19;12.97;;;6.37;;
11582;SDS011;34299;50.820;4.548;2024-02-16T11:50:47;10.20;;;5.63;;
11582;SDS011;34299;50.820;4.548;2024-02-16T11:53:16;8.50;;;5.20;;
11582;SDS011;34299;50.820;4.548;2024-02-16T11:55:47;10.70;;;6.53;;
11582;SDS011;34299;50.820;4.548;2024-02-16T11:58:16;10.37;;;6.30;;
11582;SDS011;34299;50.820;4.548;2024-02-16T12:00:44;10.33;;;5.90;;
11582;SDS011;34299;50.820;4.548;2024-02-16T12:03:17;11.00;;;6.47;;
11582;SDS011;34299;50.820;4.548;2024-02-16T12:05:52;9.53;;;6.03;;
11582;SDS011;34299;50.820;4.548;2024-02-16T12:08:19;10.47;;;5.57;;
11582;SDS011;34299;50.820;4.548;2024-02-16T12:10:47;12.67;;;6.07;;
11582;SDS011;34299;50.820;4.548;2024-02-16T12:13:17;8.50;;;5.23;;
11582;SDS011;34299;50.820;4.548;2024-02-16T12:15:44;7.97;;;5.57;;
11582;SDS011;34299;50.820;4.548;2024-02-16T12:18:18;10.00;;;6.37;;
11582;SDS011;34299;50.820;4.548;2024-02-16T12:20:55;9.57;;;6.57;;
11582;SDS011;34299;50.820;4.548;2024-02-16T12:23:23;9.73;;;6.37;;
11582;SDS011;34299;50.820;4.548;2024-02-16T12:25:50;8.37;;;5.17;;
11582;SDS011;34299;50.820;4.548;2024-02-16T12:28:19;7.80;;;5.20;;
11582;SDS011;34299;50.820;4.548;2024-02-16T12:30:46;6.63;;;4.70;;
11582;SDS011;34299;50.820;4.548;2024-02-16T12:33:14;6.17;;;4.40;;
11582;SDS011;34299;50.820;4.548;2024-02-16T12:35:41;6.17;;;4.93;;
11582;SDS011;34299;50.820;4.548;2024-02-16T12:38:09;7.53;;;4.93;;
11582;SDS011;34299;50.820;4.548;2024-02-16T12:40:37;4.83;;;3.70;;
11582;SDS011;34299;50.820;4.548;2024-02-16T12:43:04;6.97;;;4.53;;
11582;SDS011;34299;50.820;4.548;2024-02-16T12:45:35;4.43;;;3.77;;
11582;SDS011;34299;50.820;4.548;2024-02-16T12:48:02;4.70;;;4.00;;
11582;SDS011;34299;50.820;4.548;2024-02-16T12:50:30;5.80;;;4.20;;
11582;SDS011;34299;50.820;4.548;2024-02-16T12:52:57;6.23;;;3.90;;
11582;SDS011;34299;50.820;4.548;2024-02-16T12:55:24;4.73;;;3.80;;
11582;SDS011;34299;50.820;4.548;2024-02-16T12:57:51;4.50;;;3.73;;
11582;SDS011;34299;50.820;4.548;2024-02-16T13:00:18;6.50;;;3.90;;
11582;SDS011;34299;50.820;4.548;2024-02-16T13:02:47;4.90;;;3.93;;
11582;SDS011;34299;50.820;4.548;2024-02-16T13:05:14;5.90;;;4.30;;
11582;SDS011;34299;50.820;4.548;2024-02-16T13:07:41;5.00;;;4.50;;
11582;SDS011;34299;50.820;4.548;2024-02-16T13:10:08;5.70;;;4.27;;
11582;SDS011;34299;50.820;4.548;2024-02-16T13:12:35;6.07;;;4.93;;
11582;SDS011;34299;50.820;4.548;2024-02-16T13:15:03;4.83;;;4.30;;
11582;SDS011;34299;50.820;4.548;2024-02-16T13:17:31;7.80;;;4.67;;
11582;SDS011;34299;50.820;4.548;2024-02-16T13:20:00;6.17;;;5.17;;
11582;SDS011;34299;50.820;4.548;2024-02-16T13:22:32;5.97;;;4.77;;
11582;SDS011;34299;50.820;4.548;2024-02-16T13:25:00;7.97;;;5.60;;
11582;SDS011;34299;50.820;4.548;2024-02-16T13:27:28;8.17;;;5.43;;
11582;SDS011;34299;50.820;4.548;2024-02-16T13:29:55;6.03;;;5.17;;
11582;SDS011;34299;50.820;4.548;2024-02-16T13:32:22;6.00;;;4.90;;
11582;SDS011;34299;50.820;4.548;2024-02-16T13:34:49;8.13;;;4.47;;
11582;SDS011;34299;50.820;4.548;2024-02-16T13:37:17;7.40;;;5.50;;
11582;SDS011;34299;50.820;4.548;2024-02-16T13:39:44;7.37;;;5.63;;
11582;SDS011;34299;50.820;4.548;2024-02-16T13:42:11;6.63;;;5.17;;
11582;SDS011;34299;50.820;4.548;2024-02-16T13:44:39;7.03;;;5.73;;
11582;SDS011;34299;50.820;4.548;2024-02-16T13:47:06;7.43;;;5.70;;
11582;SDS011;34299;50.820;4.548;2024-02-16T13:49:33;7.87;;;5.83;;
11582;SDS011;34299;50.820;4.548;2024-02-16T13:52:00;8.07;;;6.23;;
11582;SDS011;34299;50.820;4.548;2024-02-16T13:54:29;7.90;;;5.87;;
11582;SDS011;34299;50.820;4.548;2024-02-16T13:56:56;6.53;;;5.00;;
11582;SDS011;34299;50.820;4.548;2024-02-16T13:59:23;7.50;;;5.90;;
11582;SDS011;34299;50.820;4.548;2024-02-16T14:01:50;10.07;;;6.17;;
11582;SDS011;34299;50.820;4.548;2024-02-16T14:04:17;8.43;;;6.23;;
11582;SDS011;34299;50.820;4.548;2024-02-16T14:06:44;7.83;;;6.80;;
11582;SDS011;34299;50.820;4.548;2024-02-16T14:09:11;8.83;;;6.57;;
11582;SDS011;34299;50.820;4.548;2024-02-16T14:11:40;11.63;;;6.90;;
11582;SDS011;34299;50.820;4.548;2024-02-16T14:14:08;10.07;;;7.17;;
11582;SDS011;34299;50.820;4.548;2024-02-16T14:16:35;11.87;;;8.17;;
11582;SDS011;34299;50.820;4.548;2024-02-16T14:19:02;10.83;;;8.60;;
11582;SDS011;34299;50.820;4.548;2024-02-16T14:21:29;11.97;;;8.80;;
11582;SDS011;34299;50.820;4.548;2024-02-16T14:23:57;10.90;;;8.37;;
11582;SDS011;34299;50.820;4.548;2024-02-16T14:26:24;9.97;;;8.67;;
11582;SDS011;34299;50.820;4.548;2024-02-16T14:28:52;10.40;;;8.63;;
11582;SDS011;34299;50.820;4.548;2024-02-16T14:31:20;11.20;;;8.33;;
11582;SDS011;34299;50.820;4.548;2024-02-16T14:33:47;9.90;;;8.73;;
11582;SDS011;34299;50.820;4.548;2024-02-16T14:36:14;8.53;;;7.13;;
11582;SDS011;34299;50.820;4.548;2024-02-16T14:38:42;8.13;;;6.67;;
11582;SDS011;34299;50.820;4.548;2024-02-16T14:41:08;7.83;;;6.57;;
11582;SDS011;34299;50.820;4.548;2024-02-16T14:43:36;7.80;;;6.07;;
11582;SDS011;34299;50.820;4.548;2024-02-16T14:46:04;6.50;;;5.13;;
11582;SDS011;34299;50.820;4.548;2024-02-16T14:48:31;5.53;;;4.70;;
11582;SDS011;34299;50.820;4.548;2024-02-16T14:50:58;4.53;;;4.13;;